Time;durP1;ratioP1;P1;durP2;ratioP2;P2;SDS_P1;SDS_P2;PMS_P1;PMS_P2;Temp;Humidity;BMP_temperature;BMP_pressure;BME280_temperature;BME280_humidity;BME280_pressure;Samples;Min_cycle;Max_cycle;Signal;HPM_P1;HPM_P2
2022/03/09 00:01:21;;;;;;;;;66.67;53.33;;;;;8.81;43.03;101237.78;5067264;28;45587;-87
2022/03/09 00:03:46;;;;;;;;;61.00;48.67;;;;;8.82;42.80;101235.16;5063685;28;46297;-79
2022/03/09 00:06:12;;;;;;;;;65.33;48.00;;;;;8.76;43.60;101229.81;5067142;28;45508;-85
2022/03/09 00:08:37;;;;;;;;;61.33;52.67;;;;;8.71;43.72;101223.53;5075769;28;45570;-72
2022/03/09 00:11:03;;;;;;;;;60.33;47.33;;;;;8.76;43.59;101235.06;5066391;28;45529;-77
2022/03/09 00:13:29;;;;;;;;;61.00;48.00;;;;;8.73;43.68;101229.72;5061622;28;46224;-80
2022/03/09 00:15:54;;;;;;;;;64.00;49.00;;;;;8.70;43.22;101231.41;5061391;28;45401;-83
2022/03/09 00:18:19;;;;;;;;;63.00;51.67;;;;;8.69;44.03;101234.88;5060495;28;45084;-73
2022/03/09 00:20:45;;;;;;;;;69.33;51.33;;;;;8.70;44.01;101236.66;5061352;28;45438;-80
2022/03/09 00:23:11;;;;;;;;;66.67;52.33;;;;;8.68;43.64;101238.34;5061561;28;46348;-76
2022/03/09 00:25:36;;;;;;;;;68.33;53.00;;;;;8.62;44.29;101227.69;5061589;28;45478;-76
2022/03/09 00:28:02;;;;;;;;;68.67;53.33;;;;;8.64;43.70;101241.75;5064860;28;45321;-76
2022/03/09 00:30:27;;;;;;;;;70.00;54.00;;;;;8.62;44.00;101236.47;5065772;28;45455;-76
2022/03/09 00:32:53;;;;;;;;;62.00;48.00;;;;;8.59;44.36;101238.16;5066357;28;46270;-77
2022/03/09 00:35:18;;;;;;;;;65.67;52.67;;;;;8.56;44.14;101234.59;5068571;28;45300;-87
2022/03/09 00:37:44;;;;;;;;;70.00;53.00;;;;;8.58;44.55;101250.38;5071228;28;45135;-89
2022/03/09 00:40:09;;;;;;;;;65.33;52.33;;;;;8.51;44.46;101244.09;5082179;28;45279;-85
2022/03/09 00:42:39;;;;;;;;;63.67;51.00;;;;;8.51;44.32;101249.34;5065432;28;46161;-71
2022/03/09 00:45:05;;;;;;;;;71.00;53.67;;;;;8.53;44.14;101258.13;5066788;28;45294;-79
2022/03/09 00:47:32;;;;;;;;;67.67;51.33;;;;;8.54;44.12;101262.53;5064432;28;45259;-92
2022/03/09 00:49:57;;;;;;;;;65.00;49.67;;;;;8.46;44.49;101250.06;5064129;28;45238;-81
2022/03/09 00:52:22;;;;;;;;;65.33;54.00;;;;;8.53;44.82;101259.88;5063578;28;46282;-78
2022/03/09 00:54:49;;;;;;;;;71.00;54.67;;;;;8.52;44.92;101268.63;5062371;28;45259;-82
2022/03/09 00:57:14;;;;;;;;;67.67;48.00;;;;;8.41;44.22;101254.34;5059339;28;45311;-76
2022/03/09 00:59:40;;;;;;;;;71.00;53.67;;;;;8.51;44.95;101274.72;5061313;28;45218;-73
2022/03/09 01:02:05;;;;;;;;;69.00;54.67;;;;;8.42;45.23;101257.00;5061733;28;47387;-75
2022/03/09 01:04:33;;;;;;;;;61.33;50.33;;;;;8.47;44.57;101267.63;5060576;28;45572;-74
2022/03/09 01:06:59;;;;;;;;;65.33;50.00;;;;;8.48;44.54;101272.91;5061804;28;45329;-85
2022/03/09 01:09:24;;;;;;;;;69.67;56.67;;;;;8.46;44.87;101269.34;5062227;28;45535;-88
2022/03/09 01:11:50;;;;;;;;;70.67;53.33;;;;;8.46;45.08;101269.34;5060676;28;47054;-76
2022/03/09 01:14:16;;;;;;;;;62.33;48.67;;;;;8.44;44.65;101268.41;5057838;28;45498;-75
2022/03/09 01:16:41;;;;;;;;;69.67;54.33;;;;;8.44;44.73;101262.28;5062724;28;45270;-82
2022/03/09 01:19:07;;;;;;;;;66.33;52.00;;;;;8.43;45.54;101273.63;5066463;28;45436;-82
2022/03/09 01:21:34;;;;;;;;;64.67;51.33;;;;;8.24;45.87;101243.38;5046539;28;47013;-77
2022/03/09 01:23:59;;;;;;;;;64.67;51.33;;;;;8.33;45.58;101266.34;5067630;28;45300;-74
2022/03/09 01:26:26;;;;;;;;;64.67;52.67;;;;;8.37;45.72;101277.00;5056090;28;45168;-87
2022/03/09 01:28:51;;;;;;;;;69.33;54.33;;;;;8.37;45.78;101278.72;5072361;27;45181;-73
2022/03/09 01:31:17;;;;;;;;;72.67;55.00;;;;;8.36;45.51;101282.19;5086900;28;46911;-84
2022/03/09 01:33:42;;;;;;;;;71.33;54.67;;;;;8.32;45.47;101275.97;5061960;28;46758;-84
2022/03/09 01:36:08;;;;;;;;;76.00;57.33;;;;;8.34;46.04;101279.50;5082492;28;45397;-86
2022/03/09 01:38:33;;;;;;;;;72.00;54.67;;;;;8.32;45.80;101278.59;5093123;28;45282;-81
2022/03/09 01:40:58;;;;;;;;;64.00;52.00;;;;;8.33;45.78;101280.38;5081804;28;45297;-90
2022/03/09 01:43:24;;;;;;;;;67.33;53.67;;;;;8.32;45.67;101270.72;5072196;28;45459;-84
2022/03/09 01:45:49;;;;;;;;;74.67;55.67;;;;;8.33;45.98;101271.59;5077214;28;45464;-83
2022/03/09 01:48:15;;;;;;;;;66.00;50.33;;;;;8.33;45.92;101277.75;5061692;28;45503;-88
2022/03/09 01:50:41;;;;;;;;;68.00;51.00;;;;;8.24;45.76;101256.50;5067226;28;46897;-85
2022/03/09 01:53:06;;;;;;;;;69.33;55.00;;;;;8.31;46.33;101270.69;5073078;28;45377;-86
2022/03/09 01:55:32;;;;;;;;;65.33;53.33;;;;;8.27;46.19;101269.69;5064883;28;45384;-76
2022/03/09 01:57:57;;;;;;;;;71.33;55.33;;;;;8.25;46.50;101279.28;5060231;28;45567;-73
2022/03/09 02:00:23;;;;;;;;;65.67;49.33;;;;;8.23;46.23;101260.00;5063697;28;46113;-89
2022/03/09 02:02:48;;;;;;;;;68.33;54.00;;;;;8.05;46.19;101228.91;5070621;28;45283;-86
2022/03/09 02:05:15;;;;;;;;;67.67;54.67;;;;;8.26;46.37;101267.94;5073531;28;45871;-83
2022/03/09 02:10:25;;;;;;;;;65.33;53.00;;;;;8.16;47.13;101250.19;5063358;28;45850;-90
2022/03/09 02:12:51;;;;;;;;;69.00;55.00;;;;;8.12;47.78;101249.22;5057109;28;45218;-89
2022/03/09 02:15:16;;;;;;;;;69.00;52.67;;;;;8.06;47.60;101243.81;5061264;28;45290;-81
2022/03/09 02:17:42;;;;;;;;;64.33;50.33;;;;;8.17;47.99;101262.44;5069299;28;45325;-83
2022/03/09 02:20:08;;;;;;;;;57.67;47.00;;;;;8.17;47.92;101255.47;5092235;28;45535;-85
2022/03/09 02:22:37;;;;;;;;;64.67;52.00;;;;;8.13;48.28;101250.09;5066454;28;45387;-76
2022/03/09 02:25:05;;;;;;;;;61.00;49.00;;;;;8.08;49.14;101249.97;5064453;28;45448;-78
2022/03/09 02:27:30;;;;;;;;;65.33;51.33;;;;;8.10;49.49;101244.78;5058747;28;45236;-76
2022/03/09 02:29:56;;;;;;;;;75.33;49.00;;;;;8.13;50.43;101252.72;5057610;28;46928;-73
2022/03/09 02:32:22;;;;;;;;;69.33;52.33;;;;;8.15;50.03;101249.28;5058863;28;45310;-73
2022/03/09 02:34:48;;;;;;;;;55.00;44.00;;;;;8.10;51.34;101237.81;5070030;28;45175;-70
2022/03/09 02:37:14;;;;;;;;;61.67;45.00;;;;;8.23;51.77;101260.88;5057740;28;45406;-73
2022/03/09 02:39:40;;;;;;;;;57.00;46.67;;;;;8.23;51.48;101260.00;5057886;28;46192;-73
2022/03/09 02:42:06;;;;;;;;;55.33;46.00;;;;;8.25;51.37;101256.53;5039165;28;45412;-71
2022/03/09 02:44:32;;;;;;;;;56.00;46.00;;;;;8.27;51.26;101253.94;5062293;28;45663;-73
2022/03/09 02:46:58;;;;;;;;;59.33;48.67;;;;;8.29;51.06;101257.53;5077070;28;45280;-72
2022/03/09 02:49:24;;;;;;;;;53.00;45.33;;;;;8.26;51.25;101247.81;5077951;28;47032;-73
2022/03/09 02:51:49;;;;;;;;;64.33;47.33;;;;;8.29;52.24;101270.66;5061879;28;45406;-71
2022/03/09 02:54:15;;;;;;;;;61.67;48.33;;;;;8.25;52.42;101255.66;5061085;28;45571;-73
2022/03/09 02:56:41;;;;;;;;;62.67;45.33;;;;;8.24;52.23;101257.41;5064555;28;45322;-73
2022/03/09 02:59:07;;;;;;;;;55.67;45.00;;;;;8.25;51.76;101266.16;5063532;28;47089;-81
2022/03/09 03:01:32;;;;;;;;;58.67;47.67;;;;;8.24;52.00;101274.88;5057348;28;45325;-75
2022/03/09 03:03:57;;;;;;;;;55.67;43.67;;;;;8.22;53.10;101276.59;5057726;28;45214;-71
2022/03/09 03:06:23;;;;;;;;;60.67;48.00;;;;;8.20;53.63;101273.03;5070934;28;45508;-73
2022/03/09 03:08:49;;;;;;;;;50.67;43.33;;;;;8.22;53.38;101281.84;5039435;28;45390;-72
2022/03/09 03:11:15;;;;;;;;;60.00;44.00;;;;;8.22;53.58;101281.84;5056862;28;45401;-74
2022/03/09 03:13:40;;;;;;;;;58.67;47.33;;;;;8.20;53.48;101273.94;5055467;28;45423;-76
2022/03/09 03:16:07;;;;;;;;;61.00;48.67;;;;;8.20;53.27;101276.56;5057585;28;45427;-75
2022/03/09 03:18:33;;;;;;;;;59.00;48.00;;;;;8.19;53.54;101279.13;5057504;28;45709;-73
2022/03/09 03:20:58;;;;;;;;;53.00;45.00;;;;;8.16;54.38;101281.66;5062095;28;45330;-71
2022/03/09 03:23:25;;;;;;;;;57.00;47.00;;;;;8.15;53.74;101280.78;5061120;28;45487;-79
2022/03/09 03:25:51;;;;;;;;;56.67;47.67;;;;;8.13;54.04;101272.00;5058129;28;45231;-76
2022/03/09 03:28:17;;;;;;;;;56.00;44.33;;;;;8.06;54.19;101263.91;5057438;28;46286;-72
2022/03/09 03:30:43;;;;;;;;;55.67;45.67;;;;;8.04;54.53;101266.50;5056462;28;45278;-72
2022/03/09 03:33:09;;;;;;;;;55.33;47.00;;;;;8.08;54.75;101273.59;5057550;28;45275;-73
2022/03/09 03:35:34;;;;;;;;;56.67;48.00;;;;;8.05;54.88;101265.66;5059725;28;45584;-75
2022/03/09 03:38:00;;;;;;;;;57.33;45.00;;;;;8.05;54.75;101264.75;5058626;28;46460;-87
2022/03/09 03:40:25;;;;;;;;;60.33;47.67;;;;;8.04;55.48;101265.63;5057807;28;45307;-74
2022/03/09 03:42:51;;;;;;;;;61.33;46.00;;;;;7.95;55.68;101248.78;5057804;28;45763;-71
2022/03/09 03:45:16;;;;;;;;;59.33;45.00;;;;;7.92;55.47;101248.72;5057253;28;45627;-78
2022/03/09 03:47:42;;;;;;;;;61.67;47.67;;;;;7.97;55.69;101264.56;5056741;28;47013;-82
2022/03/09 03:50:08;;;;;;;;;56.00;46.33;;;;;7.99;55.66;101269.00;5057859;28;45292;-76
2022/03/09 03:52:33;;;;;;;;;62.67;48.00;;;;;7.95;55.19;101271.50;5057465;28;45344;-80
2022/03/09 03:54:59;;;;;;;;;58.33;47.00;;;;;7.87;56.08;101271.31;5058622;28;45373;-73
2022/03/09 03:57:24;;;;;;;;;55.00;43.00;;;;;7.86;56.12;101274.78;5056496;28;47654;-73
2022/03/09 03:59:49;;;;;;;;;62.33;46.00;;;;;7.83;57.04;101277.31;5057910;28;45365;-73
2022/03/09 04:02:15;;;;;;;;;63.33;48.00;;;;;7.77;57.40;101276.25;5057249;28;45405;-73
2022/03/09 04:04:40;;;;;;;;;65.33;48.67;;;;;7.73;57.39;101275.28;5057260;28;45403;-73
2022/03/09 04:07:06;;;;;;;;;53.67;41.67;;;;;7.73;57.05;101280.53;5057477;28;46126;-73
2022/03/09 04:09:31;;;;;;;;;68.33;49.67;;;;;7.71;57.82;101277.84;5060257;28;45171;-85
2022/03/09 04:11:56;;;;;;;;;60.33;47.33;;;;;7.71;56.52;101284.84;5063198;28;45344;-87
2022/03/09 04:14:22;;;;;;;;;52.33;44.33;;;;;7.67;57.81;101286.50;5062100;28;45654;-85
2022/03/09 04:16:50;;;;;;;;;59.67;47.00;;;;;7.59;57.26;101277.53;5061954;28;46979;-85
2022/03/09 04:19:16;;;;;;;;;62.00;49.67;;;;;7.52;58.19;101275.56;5061536;28;45340;-86
2022/03/09 04:21:41;;;;;;;;;65.67;51.67;;;;;7.58;58.41;101282.72;5061424;28;45340;-77
2022/03/09 04:24:07;;;;;;;;;57.67;44.00;;;;;7.57;57.45;101281.84;5061956;28;45419;-78
2022/03/09 04:26:33;;;;;;;;;62.33;48.33;;;;;7.52;58.25;101274.69;5061388;28;46005;-74
2022/03/09 04:29:01;;;;;;;;;61.67;49.00;;;;;7.54;58.60;101275.59;5059883;28;45573;-74
2022/03/09 04:31:26;;;;;;;;;57.33;47.67;;;;;7.55;58.53;101293.13;5063651;28;45238;-75
2022/03/09 04:33:52;;;;;;;;;62.67;49.33;;;;;7.41;59.07;101266.50;5061475;28;45213;-74
2022/03/09 04:36:17;;;;;;;;;68.33;54.67;;;;;7.46;57.80;101272.78;5060254;28;46940;-75
2022/03/09 04:38:43;;;;;;;;;62.67;50.67;;;;;7.42;57.88;101268.28;5060823;28;45341;-76
2022/03/09 04:41:08;;;;;;;;;58.33;47.00;;;;;7.47;58.41;101285.06;5061075;28;45471;-77
2022/03/09 04:43:34;;;;;;;;;64.00;52.33;;;;;7.45;57.39;101286.75;5059905;28;45491;-73
2022/03/09 04:45:59;;;;;;;;;66.00;52.00;;;;;7.41;57.78;101288.38;5063824;28;45953;-81
2022/03/09 04:48:25;;;;;;;;;61.33;50.33;;;;;7.37;57.07;101283.91;5081602;28;45378;-77
2022/03/09 04:50:50;;;;;;;;;66.33;55.33;;;;;7.33;57.69;101286.38;5067931;28;45345;-75
2022/03/09 04:53:16;;;;;;;;;75.00;56.67;;;;;7.22;58.12;101280.81;5061903;28;45314;-74
2022/03/09 04:55:41;;;;;;;;;70.67;54.00;;;;;7.31;58.39;101303.78;5070886;28;46148;-77
2022/03/09 04:58:07;;;;;;;;;60.00;50.67;;;;;7.20;58.94;101297.34;5079434;28;45563;-77
2022/03/09 05:00:32;;;;;;;;;70.33;55.00;;;;;7.17;57.73;101300.78;5066732;28;45457;-76
2022/03/09 05:02:57;;;;;;;;;68.33;55.00;;;;;7.05;58.33;101301.25;5062269;28;45484;-71
2022/03/09 05:05:23;;;;;;;;;70.67;56.00;;;;;6.95;57.78;101307.06;5066933;28;46031;-74
2022/03/09 05:07:48;;;;;;;;;61.00;49.33;;;;;6.86;58.53;101307.66;5078847;28;44883;-80
2022/03/09 05:10:14;;;;;;;;;64.33;53.67;;;;;6.82;57.93;101312.78;5062642;28;45547;-73
2022/03/09 05:12:39;;;;;;;;;59.00;50.00;;;;;6.72;59.21;101310.69;5061128;28;45211;-76
2022/03/09 05:15:05;;;;;;;;;64.33;52.67;;;;;6.62;59.66;101306.91;5061062;28;46163;-83
2022/03/09 05:17:31;;;;;;;;;63.00;53.00;;;;;6.67;60.30;101318.38;5061935;28;45287;-83
2022/03/09 05:19:56;;;;;;;;;64.00;51.67;;;;;6.61;60.64;101309.44;5059665;28;45766;-76
2022/03/09 05:22:22;;;;;;;;;68.00;54.00;;;;;6.57;60.31;101303.22;5058825;28;45464;-73
2022/03/09 05:24:47;;;;;;;;;64.33;50.67;;;;;6.67;60.50;101327.97;5058637;28;45220;-78
2022/03/09 05:27:13;;;;;;;;;64.33;52.67;;;;;6.67;60.71;101330.59;5058454;28;45217;-77
2022/03/09 05:29:38;;;;;;;;;59.33;50.67;;;;;6.61;60.11;101322.53;5058142;28;45244;-77
2022/03/09 05:32:05;;;;;;;;;63.67;51.33;;;;;6.64;60.90;101328.78;5058848;28;45326;-82
2022/03/09 05:34:30;;;;;;;;;64.33;47.00;;;;;6.65;60.72;101332.28;5058658;28;47171;-77
2022/03/09 05:36:55;;;;;;;;;58.00;45.67;;;;;6.65;60.14;101341.03;5057974;28;45304;-81
2022/03/09 05:39:21;;;;;;;;;54.67;45.67;;;;;6.39;61.63;101310.47;5058446;28;45680;-84
2022/03/09 05:41:47;;;;;;;;;52.67;44.67;;;;;6.46;61.32;101333.41;5067209;28;45424;-80
2022/03/09 05:44:13;;;;;;;;;65.00;52.33;;;;;6.41;62.28;101343.69;5072176;28;47081;-87
2022/03/09 05:46:39;;;;;;;;;59.00;45.67;;;;;6.45;61.42;101347.31;5058710;28;45711;-74
2022/03/09 05:49:05;;;;;;;;;52.67;44.00;;;;;6.42;61.36;101355.06;5073778;28;45366;-74
2022/03/09 05:51:31;;;;;;;;;60.67;50.00;;;;;6.39;61.25;101353.22;5058039;28;45276;-78
2022/03/09 05:53:57;;;;;;;;;65.33;53.67;;;;;6.35;61.69;101340.00;5060350;28;45286;-80
2022/03/09 05:56:23;;;;;;;;;55.67;47.33;;;;;6.34;62.00;101354.81;5061388;28;45214;-87
2022/03/09 05:58:48;;;;;;;;;60.33;43.00;;;;;6.35;61.58;101367.06;5061557;28;45476;-76
2022/03/09 06:01:14;;;;;;;;;61.33;46.67;;;;;6.25;61.53;101352.78;5061710;28;45382;-80
2022/03/09 06:03:39;;;;;;;;;55.00;45.33;;;;;6.36;60.90;101373.19;5094829;27;46815;-83
2022/03/09 06:06:05;;;;;;;;;55.33;43.33;;;;;6.24;60.60;101347.50;5060795;28;45315;-80
2022/03/09 06:08:31;;;;;;;;;66.33;53.33;;;;;6.34;61.33;101367.91;5068751;28;45434;-78
2022/03/09 06:10:56;;;;;;;;;63.67;48.67;;;;;6.33;61.22;101367.81;5052327;28;45431;-78
2022/03/09 06:13:22;;;;;;;;;55.67;43.33;;;;;6.30;60.98;101360.75;5071162;28;46005;-77
2022/03/09 06:15:49;;;;;;;;;60.67;49.67;;;;;6.28;60.84;101368.56;5076635;28;45364;-89
2022/03/09 06:18:14;;;;;;;;;64.33;52.00;;;;;6.28;61.39;101367.69;5074490;28;45271;-79
2022/03/09 06:20:39;;;;;;;;;64.33;49.00;;;;;6.27;60.84;101368.50;5058363;28;45370;-78
2022/03/09 06:23:05;;;;;;;;;58.00;46.33;;;;;6.26;61.04;101357.16;5061100;28;45439;-83
2022/03/09 06:25:30;;;;;;;;;58.00;46.33;;;;;6.45;60.75;101378.72;5062089;28;45198;-83
2022/03/09 06:27:56;;;;;;;;;58.00;48.67;;;;;6.40;61.12;101357.63;5061490;28;45208;-85
2022/03/09 06:30:21;;;;;;;;;60.67;49.67;;;;;6.45;60.52;101358.69;5062807;28;45473;-81
2022/03/09 06:32:47;;;;;;;;;62.33;49.67;;;;;6.59;61.11;101380.06;5064397;28;46772;-86
2022/03/09 06:35:14;;;;;;;;;62.33;50.00;;;;;6.62;60.58;101374.97;5059185;28;45489;-83
2022/03/09 06:37:40;;;;;;;;;66.00;51.33;;;;;6.60;61.01;101371.38;5039306;28;45476;-75
2022/03/09 06:40:07;;;;;;;;;62.00;46.33;;;;;6.58;61.29;101379.19;5057844;28;45441;-78
2022/03/09 06:42:33;;;;;;;;;54.00;41.00;;;;;6.51;62.44;101387.69;5057721;28;46375;-78
2022/03/09 06:44:58;;;;;;;;;41.67;39.67;;;;;6.51;62.78;101365.81;5066845;28;45453;-78
2022/03/09 06:47:25;;;;;;;;;62.00;50.00;;;;;6.73;62.00;101383.16;5067019;28;45745;-78
2022/03/09 06:49:50;;;;;;;;;62.67;47.00;;;;;6.85;62.22;101383.56;5060176;28;45841;-74
2022/03/09 06:52:16;;;;;;;;;61.00;49.00;;;;;6.80;62.51;101364.22;5073852;28;45483;-85
2022/03/09 06:54:42;;;;;;;;;59.00;47.67;;;;;6.90;61.95;101383.72;5063702;28;45362;-75
2022/03/09 06:57:10;;;;;;;;;53.33;44.67;;;;;6.81;62.61;101366.00;5040952;28;45682;-79
2022/03/09 06:59:37;;;;;;;;;61.00;48.67;;;;;6.82;62.72;101371.28;5064301;28;45438;-79
2022/03/09 07:02:03;;;;;;;;;61.00;50.00;;;;;6.89;61.21;101393.31;5070822;28;46026;-79
2022/03/09 07:04:41;;;;;;;;;63.00;49.00;;;;;6.92;62.05;101397.75;5079103;28;45345;-89
2022/03/09 07:07:06;;;;;;;;;60.33;48.00;;;;;6.94;62.54;101404.81;5063272;28;45312;-77
2022/03/09 07:09:32;;;;;;;;;58.67;47.00;;;;;6.65;61.77;101335.78;5077886;28;45493;-83
2022/03/09 07:11:57;;;;;;;;;63.67;52.67;;;;;6.98;62.79;101400.56;5069522;28;47049;-85
2022/03/09 07:14:23;;;;;;;;;57.33;46.00;;;;;7.00;63.30;101405.03;5089997;28;45127;-72
2022/03/09 07:16:49;;;;;;;;;57.67;46.00;;;;;7.05;63.33;101413.03;5078015;28;45321;-76
2022/03/09 07:19:15;;;;;;;;;51.00;43.00;;;;;7.05;63.11;101413.03;5058729;28;45467;-73
2022/03/09 07:21:40;;;;;;;;;56.67;46.00;;;;;7.15;63.36;101410.75;5059266;28;46033;-74
2022/03/09 07:24:06;;;;;;;;;63.00;49.00;;;;;7.33;63.37;101425.28;5058853;28;45264;-70
2022/03/09 07:26:33;;;;;;;;;60.00;48.33;;;;;7.45;62.13;101422.16;5059381;28;45384;-70
2022/03/09 07:28:58;;;;;;;;;63.67;51.00;;;;;7.61;61.66;101416.53;5058475;28;45410;-69
2022/03/09 07:31:24;;;;;;;;;66.67;49.00;;;;;7.76;61.38;101421.34;5059552;28;45420;-76
2022/03/09 07:33:49;;;;;;;;;60.00;47.33;;;;;7.94;61.73;101433.28;5057387;28;45254;-82
2022/03/09 07:36:15;;;;;;;;;56.67;45.33;;;;;8.02;60.89;101430.00;5056274;28;45529;-79
2022/03/09 07:38:40;;;;;;;;;66.67;51.00;;;;;8.10;60.43;101434.63;5057859;28;45356;-84
2022/03/09 07:41:06;;;;;;;;;56.00;45.33;;;;;8.08;61.24;101430.16;5063910;28;46619;-74
2022/03/09 07:43:31;;;;;;;;;57.33;46.00;;;;;8.17;60.75;101446.16;5065707;28;45244;-86
2022/03/09 07:45:57;;;;;;;;;63.33;49.00;;;;;8.23;60.35;101443.72;5072843;28;45576;-75
2022/03/09 07:48:22;;;;;;;;;59.00;49.00;;;;;8.36;60.88;101442.34;5071827;27;45362;-74
2022/03/09 07:50:48;;;;;;;;;60.67;47.00;;;;;8.45;59.32;101445.22;5079806;28;46074;-69
2022/03/09 07:53:13;;;;;;;;;57.67;43.00;;;;;8.50;59.88;101446.25;5058638;28;47037;-76
2022/03/09 07:55:39;;;;;;;;;58.67;47.67;;;;;8.69;60.21;101445.00;5063991;28;45502;-83
2022/03/09 07:58:04;;;;;;;;;52.67;43.00;;;;;8.85;59.35;101450.69;5061389;28;45467;-81
2022/03/09 08:00:30;;;;;;;;;57.67;46.00;;;;;8.94;59.45;101451.78;5058012;28;46127;-81
2022/03/09 08:02:55;;;;;;;;;55.00;48.00;;;;;9.01;59.60;101453.69;5055192;28;45569;-74
2022/03/09 08:05:21;;;;;;;;;56.67;45.00;;;;;8.98;59.53;101451.88;5058741;28;45780;-79
2022/03/09 08:07:46;;;;;;;;;54.67;47.00;;;;;9.02;59.52;101453.72;5059113;28;45450;-79
2022/03/09 08:10:12;;;;;;;;;57.33;49.00;;;;;9.07;59.24;101446.88;5058552;28;46182;-79
2022/03/09 08:12:38;;;;;;;;;59.67;46.00;;;;;9.08;60.18;101446.00;5055213;28;45515;-80
2022/03/09 08:15:05;;;;;;;;;54.33;44.00;;;;;9.09;59.87;101455.66;5058053;28;45342;-78
2022/03/09 08:17:30;;;;;;;;;54.33;45.67;;;;;8.90;60.96;101434.16;5058246;28;45502;-81
2022/03/09 08:19:56;;;;;;;;;55.00;44.67;;;;;9.04;60.71;101462.56;5058059;28;45679;-82
2022/03/09 08:22:22;;;;;;;;;58.33;47.33;;;;;9.10;61.44;101461.81;5058520;28;45227;-82
2022/03/09 08:24:47;;;;;;;;;54.00;46.00;;;;;9.24;61.54;101451.66;5058582;28;45412;-80
2022/03/09 08:27:13;;;;;;;;;51.75;43.50;;;;;9.43;60.89;101456.50;5057272;28;45672;-77
2022/03/09 08:29:38;;;;;;;;;54.67;46.33;;;;;9.63;60.13;101463.09;5056017;28;46894;-81
2022/03/09 08:32:04;;;;;;;;;49.50;43.00;;;;;9.76;59.61;101460.72;5064445;28;45442;-79
2022/03/09 08:34:29;;;;;;;;;55.25;41.25;;;;;9.76;59.22;101460.72;5058481;28;45564;-78
2022/03/09 08:36:55;;;;;;;;;52.75;44.75;;;;;9.78;59.91;101465.19;5061145;28;45468;-78
2022/03/09 08:39:20;;;;;;;;;44.50;38.75;;;;;9.86;59.48;101463.59;5057655;28;46503;-76
2022/03/09 08:41:46;;;;;;;;;53.50;42.50;;;;;9.83;59.54;101473.19;5057932;28;45460;-79
2022/03/09 08:44:11;;;;;;;;;38.75;35.25;;;;;9.76;61.40;101468.63;5057486;28;45509;-78
2022/03/09 08:46:36;;;;;;;;;49.75;43.00;;;;;9.79;60.88;101468.72;5056910;28;45597;-75
2022/03/09 08:49:03;;;;;;;;;32.50;31.00;;;;;9.85;61.77;101468.84;5057469;28;47137;-78
2022/03/09 08:51:28;;;;;;;;;41.25;38.00;;;;;9.82;62.33;101459.13;5056915;28;45338;-76
2022/03/09 08:53:53;;;;;;;;;38.50;32.50;;;;;10.01;61.29;101463.06;5055647;28;45376;-74
2022/03/09 08:56:20;;;;;;;;;33.25;29.25;;;;;10.14;62.00;101470.34;5055830;28;45337;-73
2022/03/09 08:58:46;;;;;;;;;30.25;28.00;;;;;10.34;61.35;101469.91;5055040;28;46868;-73
2022/03/09 09:01:11;;;;;;;;;26.00;23.75;;;;;10.40;60.83;101462.13;5057294;28;45425;-75
2022/03/09 09:03:37;;;;;;;;;42.25;35.50;;;;;10.47;62.04;101469.28;5054495;28;46211;-79
2022/03/09 09:06:02;;;;;;;;;32.50;28.75;;;;;10.39;63.36;101473.50;5061574;28;45477;-83
2022/03/09 09:08:28;;;;;;;;;31.25;31.25;;;;;10.38;62.84;101475.25;5059816;28;45457;-78
2022/03/09 09:10:53;;;;;;;;;30.25;29.00;;;;;10.48;62.17;101445.59;5051896;28;45503;-73
2022/03/09 09:13:19;;;;;;;;;29.50;26.00;;;;;10.64;61.44;101467.88;5057593;28;45539;-74
2022/03/09 09:15:45;;;;;;;;;33.25;30.00;;;;;10.46;62.65;101464.88;5058223;28;46958;-73
2022/03/09 09:18:11;;;;;;;;;31.00;27.25;;;;;10.36;62.23;101468.19;5056418;28;46291;-75
2022/03/09 09:20:36;;;;;;;;;27.50;26.50;;;;;10.33;63.88;101468.13;5057087;28;45575;-79
2022/03/09 09:23:02;;;;;;;;;18.25;16.25;;;;;10.39;63.12;101476.16;5059163;28;45449;-80
2022/03/09 09:25:28;;;;;;;;;27.75;27.50;;;;;10.17;63.91;101456.38;5057953;28;45398;-78
2022/03/09 09:27:55;;;;;;;;;27.50;22.75;;;;;10.05;65.53;101479.78;5057237;28;47541;-77
2022/03/09 09:30:23;;;;;;;;;30.50;27.75;;;;;10.26;64.74;101477.66;5060708;28;45448;-79
2022/03/09 09:32:49;;;;;;;;;30.25;30.25;;;;;10.55;63.81;101463.31;5041163;28;45494;-78
2022/03/09 09:35:16;;;;;;;;;31.75;30.50;;;;;10.75;63.31;101460.16;5052912;28;45668;-76
2022/03/09 09:37:42;;;;;;;;;28.50;27.00;;;;;10.80;61.91;101462.03;5054948;28;45431;-80
2022/03/09 09:40:10;;;;;;;;;25.75;24.25;;;;;11.15;60.74;101456.44;5034227;28;45513;-78
2022/03/09 09:42:37;;;;;;;;;28.00;27.50;;;;;11.26;61.50;101467.19;5035184;28;46925;-77
2022/03/09 09:45:04;;;;;;;;;28.00;23.00;;;;;11.10;60.78;101431.78;5055898;28;45351;-80
2022/03/09 09:47:31;;;;;;;;;30.00;25.25;;;;;11.20;61.53;101454.78;5056096;28;45808;-76
2022/03/09 09:49:57;;;;;;;;;27.25;25.75;;;;;11.12;62.22;101459.94;5056687;28;45410;-75
2022/03/09 09:52:32;;;;;;;;;23.75;23.75;;;;;11.39;61.62;101448.94;5058044;28;45483;-83
2022/03/09 09:54:59;;;;;;;;;29.50;28.25;;;;;13.28;56.46;101447.66;5057910;28;45601;-79
2022/03/09 09:57:27;;;;;;;;;28.50;25.50;;;;;16.45;50.59;101441.00;5056090;28;47336;-79
2022/03/09 09:59:53;;;;;;;;;28.75;26.25;;;;;20.81;40.91;101409.78;5058241;28;45544;-80
2022/03/09 10:02:20;;;;;;;;;25.25;23.25;;;;;21.62;37.79;101430.06;5059896;28;45791;-81
2022/03/09 10:04:47;;;;;;;;;21.75;19.25;;;;;23.77;34.56;101429.56;5039112;28;45599;-77
2022/03/09 10:07:13;;;;;;;;;30.00;29.75;;;;;23.62;33.32;101428.31;5056050;28;45351;-82
2022/03/09 10:09:40;;;;;;;;;23.75;20.00;;;;;22.48;34.97;101425.78;5057838;28;45826;-79
2022/03/09 10:12:08;;;;;;;;;18.25;16.50;;;;;21.65;36.69;101428.19;5054847;28;45492;-76
2022/03/09 10:14:43;;;;;;;;;19.25;18.25;;;;;21.76;35.44;101428.78;5060484;28;45491;-75
2022/03/09 10:17:13;;;;;;;;;18.50;17.00;;;;;23.22;34.25;101428.78;5060511;28;46176;-76
2022/03/09 10:19:41;;;;;;;;;20.67;19.00;;;;;25.87;30.07;101422.84;5059620;28;45720;-79
2022/03/09 10:22:32;;;;;;;;;15.00;15.00;;;;;27.15;28.65;101416.72;5058430;28;45512;-86
2022/03/09 10:25:17;;;;;;;;;32.00;30.67;;;;;27.70;26.30;101386.78;5058595;28;45531;-82
2022/03/09 10:27:48;;;;;;;;;22.67;18.33;;;;;27.77;26.72;101422.53;5055302;28;46197;-81
2022/03/09 10:30:18;;;;;;;;;16.33;14.00;;;;;28.64;25.28;101409.59;5057366;28;45507;-78
2022/03/09 10:32:52;;;;;;;;;15.00;15.00;;;;;27.73;26.14;101420.94;5040401;28;45380;-74
2022/03/09 10:35:42;;;;;;;;;18.00;17.33;;;;;28.64;24.80;101399.63;5060823;28;45518;-81
2022/03/09 10:38:21;;;;;;;;;13.00;12.33;;;;;30.66;23.17;101392.66;4991666;28;45421;-79
2022/03/09 10:40:53;;;;;;;;;20.00;17.00;;;;;29.92;23.44;101404.63;4991890;28;45671;-83
2022/03/09 10:43:28;;;;;;;;;16.67;16.67;;;;;31.34;22.90;101405.28;4992497;28;45431;-79
2022/03/09 10:46:01;;;;;;;;;19.67;19.67;;;;;32.73;20.67;101393.44;4995254;28;45619;-81
2022/03/09 10:48:50;;;;;;;;;19.00;16.50;;;;;33.62;19.87;101387.50;4994313;28;46819;-79
2022/03/09 10:51:24;;;;;;;;;19.75;18.00;;;;;34.80;18.76;101399.75;4992566;28;45416;-78
2022/03/09 10:53:50;;;;;;;;;14.80;14.80;;;;;33.09;19.57;101392.53;4992580;28;45482;-81
2022/03/09 10:56:21;;;;;;;;;22.00;18.50;;;;;31.14;21.27;101377.56;4994588;28;45513;-78
2022/03/09 10:58:47;;;;;;;;;14.75;14.75;;;;;32.72;20.63;101371.72;4993863;28;45553;-80
2022/03/09 11:01:17;;;;;;;;;13.50;13.50;;;;;33.72;19.77;101393.09;4994799;28;45463;-80
2022/03/09 11:03:43;;;;;;;;;17.20;16.60;;;;;34.75;18.88;101400.16;4992637;28;45456;-80
2022/03/09 11:06:10;;;;;;;;;15.75;15.75;;;;;35.22;17.86;101398.00;4994363;28;45433;-77
2022/03/09 11:08:37;;;;;;;;;12.00;11.40;;;;;35.53;17.69;101387.16;4992780;28;47163;-77
2022/03/09 11:11:04;;;;;;;;;11.80;11.00;;;;;35.69;17.63;101398.50;4994213;28;45484;-77
2022/03/09 11:13:32;;;;;;;;;13.00;12.00;;;;;34.76;17.73;101392.81;4994566;28;45505;-77